sensor_id;sensor_type;location;lat;lon;timestamp;pressure;altitude;pressure_sealevel;temperature;humidity
12781;BME280;6454;43.304;24.344;2023-04-09T00:01:07;100735.28;;;9.62;97.51
12781;BME280;6454;43.304;24.344;2023-04-09T00:03:35;100734.72;;;9.55;97.93
12781;BME280;6454;43.304;24.344;2023-04-09T00:06:04;100683.44;;;9.29;97.38
12781;BME280;6454;43.304;24.344;2023-04-09T00:08:31;100741.53;;;9.63;96.86
12781;BME280;6454;43.304;24.344;2023-04-09T00:10:58;100739.06;;;9.56;96.98
12781;BME280;6454;43.304;24.344;2023-04-09T00:13:25;100734.19;;;9.53;98.16
12781;BME280;6454;43.304;24.344;2023-04-09T00:15:52;100730.94;;;9.56;96.94
12781;BME280;6454;43.304;24.344;2023-04-09T00:18:19;100696.19;;;9.33;96.98
12781;BME280;6454;43.304;24.344;2023-04-09T00:20:45;100731.94;;;9.40;97.32
12781;BME280;6454;43.304;24.344;2023-04-09T00:23:14;100731.16;;;9.45;98.06
12781;BME280;6454;43.304;24.344;2023-04-09T00:25:40;100738.22;;;9.46;97.73
12781;BME280;6454;43.304;24.344;2023-04-09T00:28:07;100740.63;;;9.37;97.53
12781;BME280;6454;43.304;24.344;2023-04-09T00:30:34;100733.56;;;9.36;97.99
12781;BME280;6454;43.304;24.344;2023-04-09T00:33:01;100733.31;;;9.43;97.90
12781;BME280;6454;43.304;24.344;2023-04-09T00:35:28;100733.63;;;9.51;97.57
12781;BME280;6454;43.304;24.344;2023-04-09T00:37:54;100735.53;;;9.51;97.13
12781;BME280;6454;43.304;24.344;2023-04-09T00:40:23;100736.56;;;9.45;98.07
12781;BME280;6454;43.304;24.344;2023-04-09T00:42:50;100743.34;;;9.47;97.62
12781;BME280;6454;43.304;24.344;2023-04-09T00:45:17;100738.50;;;9.44;97.05
12781;BME280;6454;43.304;24.344;2023-04-09T00:47:43;100734.97;;;9.44;96.88
12781;BME280;6454;43.304;24.344;2023-04-09T00:50:10;100737.66;;;9.44;96.99
12781;BME280;6454;43.304;24.344;2023-04-09T00:52:37;100741.44;;;9.43;96.99
12781;BME280;6454;43.304;24.344;2023-04-09T00:55:05;100737.34;;;9.35;97.17
12781;BME280;6454;43.304;24.344;2023-04-09T00:57:33;100736.00;;;9.38;97.94
12781;BME280;6454;43.304;24.344;2023-04-09T01:00:00;100560.03;;;8.19;97.18
12781;BME280;6454;43.304;24.344;2023-04-09T01:02:28;100739.31;;;9.50;97.30
12781;BME280;6454;43.304;24.344;2023-04-09T01:04:56;100734.97;;;9.44;97.49
12781;BME280;6454;43.304;24.344;2023-04-09T01:07:35;100740.63;;;9.42;98.13
12781;BME280;6454;43.304;24.344;2023-04-09T01:10:09;100734.97;;;9.49;97.93
12781;BME280;6454;43.304;24.344;2023-04-09T01:12:49;100736.34;;;9.51;97.88
12781;BME280;6454;43.304;24.344;2023-04-09T01:15:22;100681.19;;;9.11;97.80
12781;BME280;6454;43.304;24.344;2023-04-09T01:17:55;100688.31;;;9.22;98.04
12781;BME280;6454;43.304;24.344;2023-04-09T01:20:29;100750.13;;;9.50;97.79
12781;BME280;6454;43.304;24.344;2023-04-09T01:23:06;100733.31;;;9.43;97.88
12781;BME280;6454;43.304;24.344;2023-04-09T01:25:43;100732.50;;;9.42;98.98
12781;BME280;6454;43.304;24.344;2023-04-09T01:28:26;100730.59;;;9.43;98.91
12781;BME280;6454;43.304;24.344;2023-04-09T01:30:58;100719.72;;;9.33;98.73
12781;BME280;6454;43.304;24.344;2023-04-09T01:33:28;100727.09;;;9.37;99.17
12781;BME280;6454;43.304;24.344;2023-04-09T01:35:56;100721.13;;;9.45;98.97
12781;BME280;6454;43.304;24.344;2023-04-09T01:38:25;100665.47;;;9.07;98.88
12781;BME280;6454;43.304;24.344;2023-04-09T01:40:54;100726.03;;;9.48;99.61
12781;BME280;6454;43.304;24.344;2023-04-09T01:43:25;100731.72;;;9.42;99.93
12781;BME280;6454;43.304;24.344;2023-04-09T01:45:52;100729.03;;;9.47;100.00
12781;BME280;6454;43.304;24.344;2023-04-09T01:48:20;100730.63;;;9.48;100.00
12781;BME280;6454;43.304;24.344;2023-04-09T01:50:48;100730.03;;;9.36;100.00
12781;BME280;6454;43.304;24.344;2023-04-09T01:53:16;100735.78;;;9.44;100.00
12781;BME280;6454;43.304;24.344;2023-04-09T01:55:43;100728.97;;;9.37;100.00
12781;BME280;6454;43.304;24.344;2023-04-09T01:58:10;100722.75;;;9.36;100.00
12781;BME280;6454;43.304;24.344;2023-04-09T02:00:42;100733.63;;;9.46;100.00
12781;BME280;6454;43.304;24.344;2023-04-09T02:03:15;100709.47;;;9.30;100.00
12781;BME280;6454;43.304;24.344;2023-04-09T02:05:44;100735.50;;;9.46;100.00
12781;BME280;6454;43.304;24.344;2023-04-09T02:08:17;100735.47;;;9.36;100.00
12781;BME280;6454;43.304;24.344;2023-04-09T02:10:52;100742.22;;;9.33;100.00
12781;BME280;6454;43.304;24.344;2023-04-09T02:13:20;100742.56;;;9.47;100.00
12781;BME280;6454;43.304;24.344;2023-04-09T02:15:49;100739.88;;;9.52;100.00
12781;BME280;6454;43.304;24.344;2023-04-09T02:18:24;100739.84;;;9.47;100.00
12781;BME280;6454;43.304;24.344;2023-04-09T02:20:53;100739.28;;;9.45;100.00
12781;BME280;6454;43.304;24.344;2023-04-09T02:23:20;100734.66;;;9.40;100.00
12781;BME280;6454;43.304;24.344;2023-04-09T02:25:46;100738.72;;;9.43;100.00
12781;BME280;6454;43.304;24.344;2023-04-09T02:28:13;100743.09;;;9.44;100.00
12781;BME280;6454;43.304;24.344;2023-04-09T02:30:40;100739.31;;;9.55;99.93
12781;BME280;6454;43.304;24.344;2023-04-09T02:33:09;100666.03;;;9.04;99.78
12781;BME280;6454;43.304;24.344;2023-04-09T02:35:36;100749.88;;;9.46;99.74
12781;BME280;6454;43.304;24.344;2023-04-09T02:38:03;100743.09;;;9.49;99.98
12781;BME280;6454;43.304;24.344;2023-04-09T02:40:30;100742.00;;;9.50;99.51
12781;BME280;6454;43.304;24.344;2023-04-09T02:42:57;100717.00;;;9.28;99.75
12781;BME280;6454;43.304;24.344;2023-04-09T02:45:24;100749.31;;;9.44;100.00
12781;BME280;6454;43.304;24.344;2023-04-09T02:47:51;100744.72;;;9.50;100.00
12781;BME280;6454;43.304;24.344;2023-04-09T02:50:19;100746.91;;;9.58;99.33
12781;BME280;6454;43.304;24.344;2023-04-09T02:52:46;100743.66;;;9.56;98.83
12781;BME280;6454;43.304;24.344;2023-04-09T02:55:13;100782.91;;;9.48;99.26
12781;BME280;6454;43.304;24.344;2023-04-09T02:57:40;100746.88;;;9.48;99.77
12781;BME280;6454;43.304;24.344;2023-04-09T03:00:08;100551.81;;;8.40;99.23
12781;BME280;6454;43.304;24.344;2023-04-09T03:02:35;100746.41;;;9.61;98.79
12781;BME280;6454;43.304;24.344;2023-04-09T03:05:02;100742.03;;;9.55;98.78
12781;BME280;6454;43.304;24.344;2023-04-09T03:07:30;100746.91;;;9.58;99.47
12781;BME280;6454;43.304;24.344;2023-04-09T03:09:57;100729.59;;;9.54;99.30
12781;BME280;6454;43.304;24.344;2023-04-09T03:12:24;100744.00;;;9.69;98.70
12781;BME280;6454;43.304;24.344;2023-04-09T03:14:51;100745.56;;;9.60;99.00
12781;BME280;6454;43.304;24.344;2023-04-09T03:17:18;100743.97;;;9.59;100.00
12781;BME280;6454;43.304;24.344;2023-04-09T03:19:45;100752.13;;;9.69;100.00
12781;BME280;6454;43.304;24.344;2023-04-09T03:22:11;100749.16;;;9.76;100.00
12781;BME280;6454;43.304;24.344;2023-04-09T03:24:40;100745.88;;;9.69;100.00
12781;BME280;6454;43.304;24.344;2023-04-09T03:27:06;100746.91;;;9.58;100.00
12781;BME280;6454;43.304;24.344;2023-04-09T03:29:33;100674.25;;;9.25;100.00
12781;BME280;6454;43.304;24.344;2023-04-09T03:32:00;100741.84;;;9.71;100.00
12781;BME280;6454;43.304;24.344;2023-04-09T03:34:27;100748.06;;;9.67;100.00
12781;BME280;6454;43.304;24.344;2023-04-09T03:36:54;100751.53;;;9.57;100.00
12781;BME280;6454;43.304;24.344;2023-04-09T03:39:21;100673.59;;;9.07;100.00
12781;BME280;6454;43.304;24.344;2023-04-09T03:41:49;100752.91;;;9.65;100.00
12781;BME280;6454;43.304;24.344;2023-04-09T03:44:16;100488.84;;;7.98;100.00
12781;BME280;6454;43.304;24.344;2023-04-09T03:46:43;100757.50;;;9.54;100.00
12781;BME280;6454;43.304;24.344;2023-04-09T03:49:09;100620.88;;;8.63;100.00
12781;BME280;6454;43.304;24.344;2023-04-09T03:51:36;100762.66;;;9.61;100.00
12781;BME280;6454;43.304;24.344;2023-04-09T03:54:03;100760.47;;;9.63;100.00
12781;BME280;6454;43.304;24.344;2023-04-09T03:56:30;100456.00;;;7.69;100.00
12781;BME280;6454;43.304;24.344;2023-04-09T03:58:58;100752.13;;;9.69;100.00
12781;BME280;6454;43.304;24.344;2023-04-09T04:01:25;100759.69;;;9.67;100.00
12781;BME280;6454;43.304;24.344;2023-04-09T04:03:52;100456.34;;;7.46;98.53
12781;BME280;6454;43.304;24.344;2023-04-09T04:06:19;100746.09;;;9.57;99.32
12781;BME280;6454;43.304;24.344;2023-04-09T04:08:46;100759.16;;;9.70;99.91
12781;BME280;6454;43.304;24.344;2023-04-09T04:11:13;100765.41;;;9.76;99.46
12781;BME280;6454;43.304;24.344;2023-04-09T04:13:40;100767.03;;;9.72;99.12
12781;BME280;6454;43.304;24.344;2023-04-09T04:16:09;100767.28;;;9.70;99.10
12781;BME280;6454;43.304;24.344;2023-04-09T04:18:36;100770.25;;;9.64;99.42
12781;BME280;6454;43.304;24.344;2023-04-09T04:21:03;100767.59;;;9.74;99.51
12781;BME280;6454;43.304;24.344;2023-04-09T04:23:29;100764.06;;;9.79;99.25
12781;BME280;6454;43.304;24.344;2023-04-09T04:25:56;100771.09;;;9.69;99.28
12781;BME280;6454;43.304;24.344;2023-04-09T04:28:23;100767.81;;;9.72;99.44
12781;BME280;6454;43.304;24.344;2023-04-09T04:30:50;100765.97;;;9.78;98.52
12781;BME280;6454;43.304;24.344;2023-04-09T04:33:18;100761.59;;;9.67;98.45
12781;BME280;6454;43.304;24.344;2023-04-09T04:35:45;100773.00;;;9.74;99.04
12781;BME280;6454;43.304;24.344;2023-04-09T04:38:12;100769.78;;;9.77;98.65
12781;BME280;6454;43.304;24.344;2023-04-09T04:40:39;100772.22;;;9.84;98.10
12781;BME280;6454;43.304;24.344;2023-04-09T04:43:06;100773.03;;;9.79;98.30
12781;BME280;6454;43.304;24.344;2023-04-09T04:45:33;100777.91;;;9.82;99.20
12781;BME280;6454;43.304;24.344;2023-04-09T04:47:59;100776.00;;;9.83;99.38
12781;BME280;6454;43.304;24.344;2023-04-09T04:50:28;100770.06;;;9.86;99.62
12781;BME280;6454;43.304;24.344;2023-04-09T04:52:55;100746.91;;;9.58;100.00
12781;BME280;6454;43.304;24.344;2023-04-09T04:55:21;100612.56;;;8.70;100.00
12781;BME280;6454;43.304;24.344;2023-04-09T04:57:49;100778.19;;;9.86;100.00
12781;BME280;6454;43.304;24.344;2023-04-09T05:00:17;100776.56;;;9.90;100.00
12781;BME280;6454;43.304;24.344;2023-04-09T05:02:44;100460.34;;;7.75;99.54
12781;BME280;6454;43.304;24.344;2023-04-09T05:05:11;100697.31;;;9.37;100.00
12781;BME280;6454;43.304;24.344;2023-04-09T05:07:39;100777.13;;;9.92;100.00
12781;BME280;6454;43.304;24.344;2023-04-09T05:10:07;100714.34;;;9.43;100.00
12781;BME280;6454;43.304;24.344;2023-04-09T05:12:34;100784.44;;;9.91;99.13
12781;BME280;6454;43.304;24.344;2023-04-09T05:15:01;100781.13;;;9.74;99.26
12781;BME280;6454;43.304;24.344;2023-04-09T05:17:28;100775.19;;;9.77;99.95
12781;BME280;6454;43.304;24.344;2023-04-09T05:19:55;100779.28;;;9.85;98.51
12781;BME280;6454;43.304;24.344;2023-04-09T05:22:23;100774.13;;;9.88;98.04
12781;BME280;6454;43.304;24.344;2023-04-09T05:24:51;100779.81;;;9.82;98.08
12781;BME280;6454;43.304;24.344;2023-04-09T05:27:18;100786.56;;;9.79;98.01
12781;BME280;6454;43.304;24.344;2023-04-09T05:29:46;100785.75;;;9.84;97.73
12781;BME280;6454;43.304;24.344;2023-04-09T05:32:13;100788.19;;;9.85;97.67
12781;BME280;6454;43.304;24.344;2023-04-09T05:34:40;100785.50;;;9.85;97.79
12781;BME280;6454;43.304;24.344;2023-04-09T05:37:07;100782.78;;;9.90;97.71
12781;BME280;6454;43.304;24.344;2023-04-09T05:39:34;100793.94;;;9.99;97.10
12781;BME280;6454;43.304;24.344;2023-04-09T05:42:02;100790.72;;;10.02;97.17
12781;BME280;6454;43.304;24.344;2023-04-09T05:44:29;100639.50;;;9.01;96.56
12781;BME280;6454;43.304;24.344;2023-04-09T05:46:56;100792.31;;;10.03;96.70
12781;BME280;6454;43.304;24.344;2023-04-09T05:49:23;100669.97;;;9.44;96.55
12781;BME280;6454;43.304;24.344;2023-04-09T05:51:50;100771.53;;;10.23;95.79
12781;BME280;6454;43.304;24.344;2023-04-09T05:54:17;100762.22;;;9.94;95.69
12781;BME280;6454;43.304;24.344;2023-04-09T05:56:44;100773.16;;;10.14;94.61
12781;BME280;6454;43.304;24.344;2023-04-09T05:59:13;100767.16;;;10.17;94.72
12781;BME280;6454;43.304;24.344;2023-04-09T06:01:41;100764.44;;;10.12;94.45
12781;BME280;6454;43.304;24.344;2023-04-09T06:04:08;100772.28;;;10.04;96.77
12781;BME280;6454;43.304;24.344;2023-04-09T06:06:36;100779.88;;;10.07;97.78
12781;BME280;6454;43.304;24.344;2023-04-09T06:09:03;100782.59;;;10.07;98.12
12781;BME280;6454;43.304;24.344;2023-04-09T06:11:31;100794.84;;;10.19;98.07
12781;BME280;6454;43.304;24.344;2023-04-09T06:13:58;100787.78;;;10.13;99.13
12781;BME280;6454;43.304;24.344;2023-04-09T06:16:26;100788.31;;;10.20;98.57
12781;BME280;6454;43.304;24.344;2023-04-09T06:18:53;100632.81;;;9.24;98.05
12781;BME280;6454;43.304;24.344;2023-04-09T06:21:21;100796.19;;;10.17;98.98
12781;BME280;6454;43.304;24.344;2023-04-09T06:23:48;100792.13;;;10.14;99.18
12781;BME280;6454;43.304;24.344;2023-04-09T06:26:15;100808.41;;;10.14;99.18
12781;BME280;6454;43.304;24.344;2023-04-09T06:28:42;100792.94;;;10.20;99.23
12781;BME280;6454;43.304;24.344;2023-04-09T06:31:09;100795.38;;;10.21;98.35
12781;BME280;6454;43.304;24.344;2023-04-09T06:33:38;100793.22;;;10.23;97.89
12781;BME280;6454;43.304;24.344;2023-04-09T06:36:05;100726.13;;;9.79;96.99
12781;BME280;6454;43.304;24.344;2023-04-09T06:38:32;100815.47;;;10.41;95.38
12781;BME280;6454;43.304;24.344;2023-04-09T06:40:59;100649.16;;;9.54;93.96
12781;BME280;6454;43.304;24.344;2023-04-09T06:43:26;100798.94;;;10.52;93.87
12781;BME280;6454;43.304;24.344;2023-04-09T06:45:53;100801.66;;;10.62;93.48
12781;BME280;6454;43.304;24.344;2023-04-09T06:48:20;100777.78;;;10.34;94.35
12781;BME280;6454;43.304;24.344;2023-04-09T06:50:48;100805.72;;;10.60;93.25
12781;BME280;6454;43.304;24.344;2023-04-09T06:53:15;100802.47;;;10.73;90.87
12781;BME280;6454;43.304;24.344;2023-04-09T06:55:42;100805.19;;;10.78;91.03
12781;BME280;6454;43.304;24.344;2023-04-09T06:58:09;100666.25;;;9.85;91.34
12781;BME280;6454;43.304;24.344;2023-04-09T07:00:36;100747.16;;;10.49;92.20
12781;BME280;6454;43.304;24.344;2023-04-09T07:03:03;100698.59;;;10.22;92.10
12781;BME280;6454;43.304;24.344;2023-04-09T07:05:32;100676.59;;;10.08;92.21
12781;BME280;6454;43.304;24.344;2023-04-09T07:08:00;100803.56;;;10.87;91.86
12781;BME280;6454;43.304;24.344;2023-04-09T07:10:27;100809.56;;;10.89;91.76
12781;BME280;6454;43.304;24.344;2023-04-09T07:12:54;100811.16;;;11.00;91.86
12781;BME280;6454;43.304;24.344;2023-04-09T07:15:21;100765.31;;;10.63;92.06
12781;BME280;6454;43.304;24.344;2023-04-09T07:17:47;100699.69;;;10.26;92.07
12781;BME280;6454;43.304;24.344;2023-04-09T07:20:14;100762.59;;;10.88;90.75
12781;BME280;6454;43.304;24.344;2023-04-09T07:22:41;100814.38;;;11.27;89.34
12781;BME280;6454;43.304;24.344;2023-04-09T07:25:10;100815.47;;;11.26;89.48
12781;BME280;6454;43.304;24.344;2023-04-09T07:27:36;100816.84;;;11.19;89.55
12781;BME280;6454;43.304;24.344;2023-04-09T07:30:04;100817.66;;;11.24;88.37
12781;BME280;6454;43.304;24.344;2023-04-09T07:32:31;100660.38;;;10.18;88.45
12781;BME280;6454;43.304;24.344;2023-04-09T07:34:58;100817.66;;;11.19;89.24
12781;BME280;6454;43.304;24.344;2023-04-09T07:37:26;100829.59;;;11.23;88.74
12781;BME280;6454;43.304;24.344;2023-04-09T07:39:53;100828.78;;;11.28;87.46
12781;BME280;6454;43.304;24.344;2023-04-09T07:42:22;100824.69;;;11.30;87.82
12781;BME280;6454;43.304;24.344;2023-04-09T07:44:50;100805.72;;;11.05;87.69
12781;BME280;6454;43.304;24.344;2023-04-09T07:47:16;100810.88;;;11.22;87.57
12781;BME280;6454;43.304;24.344;2023-04-09T07:49:43;100827.09;;;11.42;87.03
12781;BME280;6454;43.304;24.344;2023-04-09T07:52:10;100836.06;;;11.42;86.44
12781;BME280;6454;43.304;24.344;2023-04-09T07:54:37;100834.47;;;11.41;85.83
12781;BME280;6454;43.304;24.344;2023-04-09T07:57:04;100682.03;;;10.49;85.27
12781;BME280;6454;43.304;24.344;2023-04-09T07:59:33;100674.47;;;10.30;84.29
12781;BME280;6454;43.304;24.344;2023-04-09T08:02:00;100848.56;;;11.43;84.71
12781;BME280;6454;43.304;24.344;2023-04-09T08:04:28;100849.91;;;11.51;84.21
12781;BME280;6454;43.304;24.344;2023-04-09T08:06:54;100844.72;;;11.59;84.16
12781;BME280;6454;43.304;24.344;2023-04-09T08:09:22;100597.44;;;10.06;83.22
12781;BME280;6454;43.304;24.344;2023-04-09T08:11:49;100512.94;;;9.59;82.34
12781;BME280;6454;43.304;24.344;2023-04-09T08:14:16;100849.59;;;11.68;82.33
12781;BME280;6454;43.304;24.344;2023-04-09T08:16:45;100852.84;;;11.75;82.71
12781;BME280;6454;43.304;24.344;2023-04-09T08:19:14;100844.44;;;11.76;83.67
12781;BME280;6454;43.304;24.344;2023-04-09T08:21:42;100698.28;;;10.79;83.64
12781;BME280;6454;43.304;24.344;2023-04-09T08:24:10;100843.06;;;11.79;83.51
12781;BME280;6454;43.304;24.344;2023-04-09T08:26:38;100848.78;;;11.77;81.66
12781;BME280;6454;43.304;24.344;2023-04-09T08:29:05;100851.22;;;11.79;81.76
12781;BME280;6454;43.304;24.344;2023-04-09T08:31:32;100846.28;;;11.91;80.52
12781;BME280;6454;43.304;24.344;2023-04-09T08:34:01;100851.69;;;12.01;78.92
12781;BME280;6454;43.304;24.344;2023-04-09T08:36:28;100819.41;;;11.74;79.63
12781;BME280;6454;43.304;24.344;2023-04-09T08:38:56;100734.25;;;11.25;79.04
12781;BME280;6454;43.304;24.344;2023-04-09T08:41:26;100783.56;;;11.67;77.86
12781;BME280;6454;43.304;24.344;2023-04-09T08:43:55;100854.06;;;12.17;75.79
12781;BME280;6454;43.304;24.344;2023-04-09T08:46:22;100846.94;;;12.21;74.55
12781;BME280;6454;43.304;24.344;2023-04-09T08:48:51;100830.47;;;12.03;76.37
12781;BME280;6454;43.304;24.344;2023-04-09T08:51:21;100854.25;;;12.31;76.84
12781;BME280;6454;43.304;24.344;2023-04-09T08:53:48;100852.06;;;12.33;77.07
12781;BME280;6454;43.304;24.344;2023-04-09T08:56:18;100848.19;;;12.44;75.70
12781;BME280;6454;43.304;24.344;2023-04-09T08:58:46;100843.84;;;12.43;75.64
12781;BME280;6454;43.304;24.344;2023-04-09T09:01:20;100834.88;;;12.43;76.15
12781;BME280;6454;43.304;24.344;2023-04-09T09:03:55;100817.22;;;12.35;75.35
12781;BME280;6454;43.304;24.344;2023-04-09T09:06:25;100845.13;;;12.56;76.11
12781;BME280;6454;43.304;24.344;2023-04-09T09:09:03;100841.88;;;12.54;75.42
12781;BME280;6454;43.304;24.344;2023-04-09T09:11:30;100844.72;;;12.72;73.00
12781;BME280;6454;43.304;24.344;2023-04-09T09:13:58;100819.94;;;12.74;74.13
12781;BME280;6454;43.304;24.344;2023-04-09T09:16:25;100837.44;;;12.97;73.82
12781;BME280;6454;43.304;24.344;2023-04-09T09:18:52;100834.97;;;13.00;74.28
12781;BME280;6454;43.304;24.344;2023-04-09T09:21:21;100829.78;;;13.09;73.02
12781;BME280;6454;43.304;24.344;2023-04-09T09:23:51;100832.41;;;13.14;70.40
12781;BME280;6454;43.304;24.344;2023-04-09T09:26:19;100828.31;;;13.16;69.99
12781;BME280;6454;43.304;24.344;2023-04-09T09:28:48;100828.25;;;13.21;69.55
12781;BME280;6454;43.304;24.344;2023-04-09T09:31:16;100828.03;;;13.18;71.81
12781;BME280;6454;43.304;24.344;2023-04-09T09:33:44;100814.16;;;13.14;72.09
12781;BME280;6454;43.304;24.344;2023-04-09T09:36:11;100828.41;;;13.35;70.80
12781;BME280;6454;43.304;24.344;2023-04-09T09:38:54;100817.25;;;13.31;72.47
12781;BME280;6454;43.304;24.344;2023-04-09T09:41:22;100820.13;;;13.45;72.99
12781;BME280;6454;43.304;24.344;2023-04-09T09:43:50;100821.09;;;13.54;69.57
12781;BME280;6454;43.304;24.344;2023-04-09T09:46:17;100815.66;;;13.54;68.37
12781;BME280;6454;43.304;24.344;2023-04-09T09:48:44;100823.09;;;13.48;69.67
12781;BME280;6454;43.304;24.344;2023-04-09T09:51:13;100818.31;;;13.59;70.17
12781;BME280;6454;43.304;24.344;2023-04-09T09:53:42;100825.44;;;13.79;69.19
12781;BME280;6454;43.304;24.344;2023-04-09T09:56:14;100820.56;;;13.99;68.33
12781;BME280;6454;43.304;24.344;2023-04-09T09:58:46;100769.88;;;13.56;68.48
12781;BME280;6454;43.304;24.344;2023-04-09T10:01:16;100841.22;;;14.05;69.90
12781;BME280;6454;43.304;24.344;2023-04-09T10:03:45;100813.56;;;14.36;68.44
12781;BME280;6454;43.304;24.344;2023-04-09T10:06:13;100811.56;;;14.60;68.00
12781;BME280;6454;43.304;24.344;2023-04-09T10:08:41;100809.00;;;14.82;68.74
12781;BME280;6454;43.304;24.344;2023-04-09T10:11:10;100789.94;;;14.96;67.12
12781;BME280;6454;43.304;24.344;2023-04-09T10:13:39;100755.72;;;14.66;64.38
12781;BME280;6454;43.304;24.344;2023-04-09T10:16:07;100816.53;;;14.90;64.55
12781;BME280;6454;43.304;24.344;2023-04-09T10:18:35;100787.63;;;14.70;65.37
12781;BME280;6454;43.304;24.344;2023-04-09T10:21:07;100803.69;;;14.91;62.11
12781;BME280;6454;43.304;24.344;2023-04-09T10:23:38;100777.47;;;14.39;63.45
12781;BME280;6454;43.304;24.344;2023-04-09T10:26:06;100809.84;;;14.64;64.73
12781;BME280;6454;43.304;24.344;2023-04-09T10:28:36;100810.31;;;14.84;65.57
12781;BME280;6454;43.304;24.344;2023-04-09T10:31:04;100820.84;;;14.59;62.09
12781;BME280;6454;43.304;24.344;2023-04-09T10:33:31;100813.22;;;14.56;62.48
12781;BME280;6454;43.304;24.344;2023-04-09T10:35:59;100808.06;;;14.73;62.12
12781;BME280;6454;43.304;24.344;2023-04-09T10:38:34;100802.56;;;14.92;63.07
12781;BME280;6454;43.304;24.344;2023-04-09T10:41:13;100746.31;;;14.58;63.08
12781;BME280;6454;43.304;24.344;2023-04-09T10:43:42;100761.16;;;14.84;63.26
12781;BME280;6454;43.304;24.344;2023-04-09T10:46:33;100784.53;;;15.23;62.27
12781;BME280;6454;43.304;24.344;2023-04-09T10:49:08;100755.34;;;15.05;62.94
12781;BME280;6454;43.304;24.344;2023-04-09T10:51:37;100690.72;;;14.68;62.18
12781;BME280;6454;43.304;24.344;2023-04-09T10:54:04;100765.28;;;15.14;66.28
12781;BME280;6454;43.304;24.344;2023-04-09T10:56:32;100766.50;;;15.22;63.58
12781;BME280;6454;43.304;24.344;2023-04-09T10:59:00;100760.84;;;15.32;63.11
12781;BME280;6454;43.304;24.344;2023-04-09T11:01:27;100760.56;;;15.47;63.11
12781;BME280;6454;43.304;24.344;2023-04-09T11:04:08;100761.56;;;15.65;60.09
12781;BME280;6454;43.304;24.344;2023-04-09T11:06:43;100755.06;;;15.61;59.26
12781;BME280;6454;43.304;24.344;2023-04-09T11:09:10;100747.19;;;15.73;62.48
12781;BME280;6454;43.304;24.344;2023-04-09T11:11:37;100747.31;;;16.03;63.07
12781;BME280;6454;43.304;24.344;2023-04-09T11:14:06;100741.81;;;16.17;61.90
12781;BME280;6454;43.304;24.344;2023-04-09T11:16:33;100692.69;;;15.98;62.60
12781;BME280;6454;43.304;24.344;2023-04-09T11:19:01;100747.69;;;16.46;61.13
12781;BME280;6454;43.304;24.344;2023-04-09T11:21:28;100652.41;;;15.90;58.49
12781;BME280;6454;43.304;24.344;2023-04-09T11:23:55;100702.22;;;16.01;59.34
12781;BME280;6454;43.304;24.344;2023-04-09T11:26:23;100640.78;;;15.85;58.62
12781;BME280;6454;43.304;24.344;2023-04-09T11:28:54;100728.63;;;16.55;59.37
12781;BME280;6454;43.304;24.344;2023-04-09T11:31:27;100731.97;;;16.74;58.36
12781;BME280;6454;43.304;24.344;2023-04-09T11:33:54;100700.38;;;16.77;57.11
12781;BME280;6454;43.304;24.344;2023-04-09T11:36:21;100721.72;;;16.88;55.24
12781;BME280;6454;43.304;24.344;2023-04-09T11:38:48;100725.94;;;16.94;56.66
12781;BME280;6454;43.304;24.344;2023-04-09T11:41:15;100722.84;;;16.87;57.00
12781;BME280;6454;43.304;24.344;2023-04-09T11:43:42;100493.09;;;15.13;57.36
12781;BME280;6454;43.304;24.344;2023-04-09T11:46:09;100723.13;;;16.55;57.73
12781;BME280;6454;43.304;24.344;2023-04-09T11:48:40;100717.34;;;16.43;57.57
12781;BME280;6454;43.304;24.344;2023-04-09T11:51:07;100714.91;;;16.33;57.17
12781;BME280;6454;43.304;24.344;2023-04-09T11:53:36;100709.78;;;16.18;57.19
12781;BME280;6454;43.304;24.344;2023-04-09T11:56:03;100700.88;;;16.12;58.75
12781;BME280;6454;43.304;24.344;2023-04-09T11:58:30;100623.81;;;15.61;58.96
12781;BME280;6454;43.304;24.344;2023-04-09T12:00:58;100549.00;;;15.57;59.15
12781;BME280;6454;43.304;24.344;2023-04-09T12:03:28;100686.88;;;16.58;56.76
12781;BME280;6454;43.304;24.344;2023-04-09T12:05:58;100653.84;;;16.32;55.93
12781;BME280;6454;43.304;24.344;2023-04-09T12:08:26;100683.41;;;16.66;55.83
12781;BME280;6454;43.304;24.344;2023-04-09T12:10:53;100683.06;;;16.90;55.35
12781;BME280;6454;43.304;24.344;2023-04-09T12:13:20;100677.72;;;16.93;55.06
12781;BME280;6454;43.304;24.344;2023-04-09T12:15:48;100675.53;;;17.04;54.88
12781;BME280;6454;43.304;24.344;2023-04-09T12:18:15;100677.00;;;17.10;55.53
12781;BME280;6454;43.304;24.344;2023-04-09T12:20:43;100694.09;;;17.07;54.57
12781;BME280;6454;43.304;24.344;2023-04-09T12:23:12;100672.88;;;16.90;54.31
12781;BME280;6454;43.304;24.344;2023-04-09T12:25:41;100669.50;;;16.85;54.74
12781;BME280;6454;43.304;24.344;2023-04-09T12:28:10;100665.44;;;16.82;56.21
12781;BME280;6454;43.304;24.344;2023-04-09T12:30:38;100635.16;;;16.56;55.93
12781;BME280;6454;43.304;24.344;2023-04-09T12:33:05;100572.66;;;16.28;57.63
12781;BME280;6454;43.304;24.344;2023-04-09T12:35:32;100665.75;;;16.81;55.24
12781;BME280;6454;43.304;24.344;2023-04-09T12:37:59;100671.88;;;16.78;54.85
12781;BME280;6454;43.304;24.344;2023-04-09T12:40:27;100646.66;;;16.67;54.71
12781;BME280;6454;43.304;24.344;2023-04-09T12:42:54;100650.72;;;16.69;53.60
12781;BME280;6454;43.304;24.344;2023-04-09T12:45:21;100542.28;;;15.85;55.06
12781;BME280;6454;43.304;24.344;2023-04-09T12:47:48;100651.50;;;16.48;54.51
12781;BME280;6454;43.304;24.344;2023-04-09T12:50:15;100653.75;;;16.46;53.75
12781;BME280;6454;43.304;24.344;2023-04-09T12:52:43;100660.63;;;16.35;54.96
12781;BME280;6454;43.304;24.344;2023-04-09T12:55:11;100654.97;;;16.09;56.81
12781;BME280;6454;43.304;24.344;2023-04-09T12:57:42;100660.56;;;16.04;57.79